sensor_id;sensor_type;location;lat;lon;timestamp;pressure;altitude;pressure_sealevel;temperature;humidity
12077;BME280;12420;42.676;23.262;2023-04-05T00:01:03;94074.13;;;0.62;100.00
12077;BME280;12420;42.676;23.262;2023-04-05T00:03:32;94023.78;;;0.16;100.00
12077;BME280;12420;42.676;23.262;2023-04-05T00:05:59;94084.34;;;0.67;100.00
12077;BME280;12420;42.676;23.262;2023-04-05T00:08:27;94066.47;;;0.46;100.00
12077;BME280;12420;42.676;23.262;2023-04-05T00:10:55;94067.38;;;0.57;100.00
12077;BME280;12420;42.676;23.262;2023-04-05T00:13:22;94022.56;;;0.38;100.00
12077;BME280;12420;42.676;23.262;2023-04-05T00:15:50;94064.09;;;0.53;100.00
12077;BME280;12420;42.676;23.262;2023-04-05T00:18:16;94074.81;;;0.77;100.00
12077;BME280;12420;42.676;23.262;2023-04-05T00:20:48;94078.22;;;0.72;100.00
12077;BME280;12420;42.676;23.262;2023-04-05T00:23:15;94064.72;;;0.63;100.00
12077;BME280;12420;42.676;23.262;2023-04-05T00:25:43;94054.63;;;0.28;100.00
12077;BME280;12420;42.676;23.262;2023-04-05T00:28:11;94080.78;;;0.61;100.00
12077;BME280;12420;42.676;23.262;2023-04-05T00:30:39;94093.47;;;0.64;100.00
12077;BME280;12420;42.676;23.262;2023-04-05T00:33:05;94089.22;;;0.42;100.00
12077;BME280;12420;42.676;23.262;2023-04-05T00:35:32;94005.09;;;-0.26;100.00
12077;BME280;12420;42.676;23.262;2023-04-05T00:37:59;94074.97;;;0.33;100.00
12077;BME280;12420;42.676;23.262;2023-04-05T00:40:26;94063.47;;;0.23;100.00
12077;BME280;12420;42.676;23.262;2023-04-05T00:42:53;94071.88;;;0.25;100.00
12077;BME280;12420;42.676;23.262;2023-04-05T00:45:21;94102.53;;;0.40;100.00
12077;BME280;12420;42.676;23.262;2023-04-05T00:47:48;94072.91;;;0.28;100.00
12077;BME280;12420;42.676;23.262;2023-04-05T00:50:15;94083.09;;;0.48;100.00
12077;BME280;12420;42.676;23.262;2023-04-05T00:52:42;94080.72;;;0.55;100.00
12077;BME280;12420;42.676;23.262;2023-04-05T00:55:09;94063.34;;;0.53;100.00
12077;BME280;12420;42.676;23.262;2023-04-05T00:57:37;94089.25;;;0.83;100.00
12077;BME280;12420;42.676;23.262;2023-04-05T01:00:06;94081.69;;;0.73;100.00
12077;BME280;12420;42.676;23.262;2023-04-05T01:02:40;94075.28;;;0.76;100.00
12077;BME280;12420;42.676;23.262;2023-04-05T01:05:20;94059.75;;;0.41;100.00
12077;BME280;12420;42.676;23.262;2023-04-05T01:07:58;94093.69;;;0.81;100.00
12077;BME280;12420;42.676;23.262;2023-04-05T01:10:35;94107.69;;;0.74;100.00
12077;BME280;12420;42.676;23.262;2023-04-05T01:13:04;94058.81;;;0.44;100.00
12077;BME280;12420;42.676;23.262;2023-04-05T01:15:31;94093.22;;;0.82;100.00
12077;BME280;12420;42.676;23.262;2023-04-05T01:17:59;94088.63;;;0.74;100.00
12077;BME280;12420;42.676;23.262;2023-04-05T01:20:32;94093.41;;;0.79;100.00
12077;BME280;12420;42.676;23.262;2023-04-05T01:23:35;94099.19;;;0.86;100.00
12077;BME280;12420;42.676;23.262;2023-04-05T01:26:30;94070.88;;;0.78;100.00
12077;BME280;12420;42.676;23.262;2023-04-05T01:29:34;94077.00;;;0.73;100.00
12077;BME280;12420;42.676;23.262;2023-04-05T01:32:10;94092.41;;;0.97;100.00
12077;BME280;12420;42.676;23.262;2023-04-05T01:34:47;94089.06;;;0.87;100.00
12077;BME280;12420;42.676;23.262;2023-04-05T01:37:19;94113.44;;;1.17;100.00
12077;BME280;12420;42.676;23.262;2023-04-05T01:39:46;94065.81;;;0.71;100.00
12077;BME280;12420;42.676;23.262;2023-04-05T01:42:16;94094.97;;;0.65;100.00
12077;BME280;12420;42.676;23.262;2023-04-05T01:44:50;94070.47;;;0.85;100.00
12077;BME280;12420;42.676;23.262;2023-04-05T01:47:17;94065.47;;;0.63;100.00
12077;BME280;12420;42.676;23.262;2023-04-05T01:49:44;94109.34;;;0.86;100.00
12077;BME280;12420;42.676;23.262;2023-04-05T01:52:11;94110.78;;;0.81;100.00
12077;BME280;12420;42.676;23.262;2023-04-05T01:54:38;94106.44;;;0.90;100.00
12077;BME280;12420;42.676;23.262;2023-04-05T01:57:05;94102.13;;;0.83;100.00
12077;BME280;12420;42.676;23.262;2023-04-05T01:59:32;94009.78;;;0.24;100.00
12077;BME280;12420;42.676;23.262;2023-04-05T02:02:05;94089.25;;;0.83;100.00
12077;BME280;12420;42.676;23.262;2023-04-05T02:04:31;94076.88;;;0.82;100.00
12077;BME280;12420;42.676;23.262;2023-04-05T02:06:58;94110.03;;;1.01;100.00
12077;BME280;12420;42.676;23.262;2023-04-05T02:09:25;94112.41;;;1.14;100.00
12077;BME280;12420;42.676;23.262;2023-04-05T02:11:52;94107.84;;;1.26;100.00
12077;BME280;12420;42.676;23.262;2023-04-05T02:14:20;94121.47;;;1.26;100.00
12077;BME280;12420;42.676;23.262;2023-04-05T02:16:47;94083.41;;;1.11;100.00
12077;BME280;12420;42.676;23.262;2023-04-05T02:19:15;94098.31;;;0.95;100.00
12077;BME280;12420;42.676;23.262;2023-04-05T02:21:47;94056.97;;;0.56;100.00
12077;BME280;12420;42.676;23.262;2023-04-05T02:24:15;94065.22;;;0.61;100.00
12077;BME280;12420;42.676;23.262;2023-04-05T02:26:42;94110.53;;;1.00;100.00
12077;BME280;12420;42.676;23.262;2023-04-05T02:29:08;94117.81;;;1.08;100.00
12077;BME280;12420;42.676;23.262;2023-04-05T02:31:35;94111.81;;;1.25;100.00
12077;BME280;12420;42.676;23.262;2023-04-05T02:34:02;94115.56;;;1.27;100.00
12077;BME280;12420;42.676;23.262;2023-04-05T02:36:31;94075.84;;;1.00;100.00
12077;BME280;12420;42.676;23.262;2023-04-05T02:38:58;94024.16;;;0.45;100.00
12077;BME280;12420;42.676;23.262;2023-04-05T02:41:25;94082.50;;;0.79;100.00
12077;BME280;12420;42.676;23.262;2023-04-05T02:43:52;94075.28;;;0.55;100.00
12077;BME280;12420;42.676;23.262;2023-04-05T02:46:19;94070.69;;;0.82;100.00
12077;BME280;12420;42.676;23.262;2023-04-05T02:48:47;94104.59;;;1.01;100.00
12077;BME280;12420;42.676;23.262;2023-04-05T02:51:14;94090.78;;;0.84;100.00
12077;BME280;12420;42.676;23.262;2023-04-05T02:53:43;94091.69;;;0.81;100.00
12077;BME280;12420;42.676;23.262;2023-04-05T02:56:10;94103.31;;;0.97;100.00
12077;BME280;12420;42.676;23.262;2023-04-05T02:58:38;94115.28;;;1.05;100.00
12077;BME280;12420;42.676;23.262;2023-04-05T03:01:05;94103.16;;;1.06;100.00
12077;BME280;12420;42.676;23.262;2023-04-05T03:03:33;94074.81;;;0.77;100.00
12077;BME280;12420;42.676;23.262;2023-04-05T03:06:02;94104.72;;;1.13;100.00
12077;BME280;12420;42.676;23.262;2023-04-05T03:08:34;94097.56;;;1.15;100.00
12077;BME280;12420;42.676;23.262;2023-04-05T03:11:06;94074.44;;;0.84;100.00
12077;BME280;12420;42.676;23.262;2023-04-05T03:13:33;94104.78;;;1.18;100.00
12077;BME280;12420;42.676;23.262;2023-04-05T03:16:00;94108.13;;;1.07;100.00
12077;BME280;12420;42.676;23.262;2023-04-05T03:18:27;94073.88;;;0.80;100.00
12077;BME280;12420;42.676;23.262;2023-04-05T03:20:55;94074.09;;;0.77;100.00
12077;BME280;12420;42.676;23.262;2023-04-05T03:23:23;94077.63;;;0.83;100.00
12077;BME280;12420;42.676;23.262;2023-04-05T03:25:54;94098.88;;;0.99;100.00
12077;BME280;12420;42.676;23.262;2023-04-05T03:28:23;94104.25;;;0.94;100.00
12077;BME280;12420;42.676;23.262;2023-04-05T03:30:50;94084.75;;;0.80;100.00
12077;BME280;12420;42.676;23.262;2023-04-05T03:33:17;94096.75;;;0.89;100.00
12077;BME280;12420;42.676;23.262;2023-04-05T03:35:45;94075.09;;;0.59;100.00
12077;BME280;12420;42.676;23.262;2023-04-05T03:38:12;94026.16;;;0.09;100.00
12077;BME280;12420;42.676;23.262;2023-04-05T03:40:39;94085.16;;;0.73;100.00
12077;BME280;12420;42.676;23.262;2023-04-05T03:43:05;94078.63;;;0.65;100.00
12077;BME280;12420;42.676;23.262;2023-04-05T03:45:34;94101.66;;;0.84;100.00
12077;BME280;12420;42.676;23.262;2023-04-05T03:48:01;94065.34;;;0.52;100.00
12077;BME280;12420;42.676;23.262;2023-04-05T03:50:28;94108.13;;;0.87;100.00
12077;BME280;12420;42.676;23.262;2023-04-05T03:52:56;94113.66;;;0.93;100.00
12077;BME280;12420;42.676;23.262;2023-04-05T03:55:23;94011.47;;;0.21;100.00
12077;BME280;12420;42.676;23.262;2023-04-05T03:57:50;94042.19;;;0.42;100.00
12077;BME280;12420;42.676;23.262;2023-04-05T04:00:17;94087.66;;;0.92;100.00
12077;BME280;12420;42.676;23.262;2023-04-05T04:02:47;94091.56;;;0.91;100.00
12077;BME280;12420;42.676;23.262;2023-04-05T04:05:15;94068.63;;;0.77;100.00
12077;BME280;12420;42.676;23.262;2023-04-05T04:07:43;94084.75;;;0.80;100.00
12077;BME280;12420;42.676;23.262;2023-04-05T04:10:12;94126.94;;;1.05;100.00
12077;BME280;12420;42.676;23.262;2023-04-05T04:12:39;94088.56;;;0.89;100.00
12077;BME280;12420;42.676;23.262;2023-04-05T04:15:07;94129.03;;;1.16;100.00
12077;BME280;12420;42.676;23.262;2023-04-05T04:17:35;94131.38;;;1.23;100.00
12077;BME280;12420;42.676;23.262;2023-04-05T04:20:05;94130.47;;;1.12;100.00
12077;BME280;12420;42.676;23.262;2023-04-05T04:22:36;94129.88;;;1.22;100.00
12077;BME280;12420;42.676;23.262;2023-04-05T04:25:08;94090.50;;;0.82;100.00
12077;BME280;12420;42.676;23.262;2023-04-05T04:27:36;94141.19;;;1.15;100.00
12077;BME280;12420;42.676;23.262;2023-04-05T04:30:06;94122.38;;;1.17;100.00
12077;BME280;12420;42.676;23.262;2023-04-05T04:32:35;94159.19;;;1.27;100.00
12077;BME280;12420;42.676;23.262;2023-04-05T04:35:22;94134.06;;;1.44;100.00
12077;BME280;12420;42.676;23.262;2023-04-05T04:37:53;94126.34;;;1.42;100.00
12077;BME280;12420;42.676;23.262;2023-04-05T04:40:22;94103.00;;;1.36;100.00
12077;BME280;12420;42.676;23.262;2023-04-05T04:42:50;94134.41;;;1.78;100.00
12077;BME280;12420;42.676;23.262;2023-04-05T04:45:18;94141.06;;;1.71;100.00
12077;BME280;12420;42.676;23.262;2023-04-05T04:47:46;94128.63;;;1.44;100.00
12077;BME280;12420;42.676;23.262;2023-04-05T04:50:15;94145.66;;;1.59;100.00
12077;BME280;12420;42.676;23.262;2023-04-05T04:52:46;94142.63;;;1.57;100.00
12077;BME280;12420;42.676;23.262;2023-04-05T04:55:13;94148.09;;;1.57;100.00
12077;BME280;12420;42.676;23.262;2023-04-05T04:57:40;94116.16;;;1.17;100.00
12077;BME280;12420;42.676;23.262;2023-04-05T05:00:08;94149.63;;;1.38;100.00
12077;BME280;12420;42.676;23.262;2023-04-05T05:02:38;94137.56;;;1.24;100.00
12077;BME280;12420;42.676;23.262;2023-04-05T05:05:05;94149.69;;;1.23;100.00
12077;BME280;12420;42.676;23.262;2023-04-05T05:07:32;94159.19;;;1.07;100.00
12077;BME280;12420;42.676;23.262;2023-04-05T05:10:01;94146.69;;;1.00;100.00
12077;BME280;12420;42.676;23.262;2023-04-05T05:12:28;94129.31;;;0.77;100.00
12077;BME280;12420;42.676;23.262;2023-04-05T05:14:55;94178.47;;;0.89;100.00
12077;BME280;12420;42.676;23.262;2023-04-05T05:17:22;94121.91;;;0.63;100.00
12077;BME280;12420;42.676;23.262;2023-04-05T05:19:49;94129.28;;;0.57;100.00
12077;BME280;12420;42.676;23.262;2023-04-05T05:22:16;94158.78;;;0.79;100.00
12077;BME280;12420;42.676;23.262;2023-04-05T05:24:45;94156.91;;;0.85;100.00
12077;BME280;12420;42.676;23.262;2023-04-05T05:27:14;94164.03;;;0.82;100.00
12077;BME280;12420;42.676;23.262;2023-04-05T05:29:41;94162.13;;;0.89;100.00
12077;BME280;12420;42.676;23.262;2023-04-05T05:32:08;94153.69;;;0.86;100.00
12077;BME280;12420;42.676;23.262;2023-04-05T05:34:39;94159.13;;;0.86;100.00
12077;BME280;12420;42.676;23.262;2023-04-05T05:37:06;94146.94;;;0.82;100.00
12077;BME280;12420;42.676;23.262;2023-04-05T05:39:33;94155.97;;;1.08;100.00
12077;BME280;12420;42.676;23.262;2023-04-05T05:42:01;94134.09;;;1.03;100.00
12077;BME280;12420;42.676;23.262;2023-04-05T05:44:30;94153.28;;;1.35;100.00
12077;BME280;12420;42.676;23.262;2023-04-05T05:46:57;94153.09;;;1.38;100.00
12077;BME280;12420;42.676;23.262;2023-04-05T05:49:24;94071.81;;;0.96;100.00
12077;BME280;12420;42.676;23.262;2023-04-05T05:51:51;94132.59;;;1.43;100.00
12077;BME280;12420;42.676;23.262;2023-04-05T05:54:18;94151.19;;;1.70;100.00
12077;BME280;12420;42.676;23.262;2023-04-05T05:56:44;94150.53;;;1.76;100.00
12077;BME280;12420;42.676;23.262;2023-04-05T05:59:11;94097.19;;;1.48;100.00
12077;BME280;12420;42.676;23.262;2023-04-05T06:01:39;94155.13;;;1.90;100.00
12077;BME280;12420;42.676;23.262;2023-04-05T06:04:10;94089.84;;;1.60;100.00
12077;BME280;12420;42.676;23.262;2023-04-05T06:06:37;94150.88;;;2.15;100.00
12077;BME280;12420;42.676;23.262;2023-04-05T06:09:04;94155.59;;;2.14;100.00
12077;BME280;12420;42.676;23.262;2023-04-05T06:11:31;94164.44;;;2.30;100.00
12077;BME280;12420;42.676;23.262;2023-04-05T06:13:58;94165.13;;;2.56;100.00
12077;BME280;12420;42.676;23.262;2023-04-05T06:16:25;94131.94;;;2.32;100.00
12077;BME280;12420;42.676;23.262;2023-04-05T06:18:53;94170.22;;;2.75;100.00
12077;BME280;12420;42.676;23.262;2023-04-05T06:21:20;94168.97;;;2.76;100.00
12077;BME280;12420;42.676;23.262;2023-04-05T06:23:47;94104.16;;;2.39;100.00
12077;BME280;12420;42.676;23.262;2023-04-05T06:26:18;94179.69;;;2.79;100.00
12077;BME280;12420;42.676;23.262;2023-04-05T06:28:45;94181.09;;;2.69;100.00
12077;BME280;12420;42.676;23.262;2023-04-05T06:31:13;94198.72;;;2.63;100.00
12077;BME280;12420;42.676;23.262;2023-04-05T06:33:41;94159.94;;;2.27;100.00
12077;BME280;12420;42.676;23.262;2023-04-05T06:36:10;94160.63;;;2.22;100.00
12077;BME280;12420;42.676;23.262;2023-04-05T06:38:37;94180.50;;;2.22;100.00
12077;BME280;12420;42.676;23.262;2023-04-05T06:41:04;94187.50;;;2.03;100.00
12077;BME280;12420;42.676;23.262;2023-04-05T06:43:36;94186.63;;;2.43;100.00
12077;BME280;12420;42.676;23.262;2023-04-05T06:46:03;94184.78;;;2.60;100.00
12077;BME280;12420;42.676;23.262;2023-04-05T06:48:33;94193.41;;;2.85;100.00
12077;BME280;12420;42.676;23.262;2023-04-05T06:51:02;94198.19;;;2.64;100.00
12077;BME280;12420;42.676;23.262;2023-04-05T06:53:30;94211.38;;;2.34;100.00
12077;BME280;12420;42.676;23.262;2023-04-05T06:55:58;94144.00;;;1.93;100.00
12077;BME280;12420;42.676;23.262;2023-04-05T06:58:28;94202.84;;;2.52;100.00
12077;BME280;12420;42.676;23.262;2023-04-05T07:00:56;94209.56;;;2.57;100.00
12077;BME280;12420;42.676;23.262;2023-04-05T07:03:23;94216.72;;;2.49;100.00
12077;BME280;12420;42.676;23.262;2023-04-05T07:05:50;94150.56;;;2.07;100.00
12077;BME280;12420;42.676;23.262;2023-04-05T07:08:18;94232.03;;;2.41;100.00
12077;BME280;12420;42.676;23.262;2023-04-05T07:10:46;94214.16;;;1.87;100.00
12077;BME280;12420;42.676;23.262;2023-04-05T07:13:13;94216.56;;;2.32;100.00
12077;BME280;12420;42.676;23.262;2023-04-05T07:15:41;94191.94;;;2.26;100.00
12077;BME280;12420;42.676;23.262;2023-04-05T07:18:08;94269.34;;;2.49;100.00
12077;BME280;12420;42.676;23.262;2023-04-05T07:20:35;94225.28;;;2.36;100.00
12077;BME280;12420;42.676;23.262;2023-04-05T07:23:02;94253.41;;;2.42;100.00
12077;BME280;12420;42.676;23.262;2023-04-05T07:25:30;94228.66;;;1.99;100.00
12077;BME280;12420;42.676;23.262;2023-04-05T07:27:58;94241.34;;;2.28;100.00
12077;BME280;12420;42.676;23.262;2023-04-05T07:30:26;94225.56;;;2.38;100.00
12077;BME280;12420;42.676;23.262;2023-04-05T07:32:53;94235.69;;;2.32;100.00
12077;BME280;12420;42.676;23.262;2023-04-05T07:35:20;94240.72;;;2.39;100.00
12077;BME280;12420;42.676;23.262;2023-04-05T07:37:47;94238.38;;;2.52;100.00
12077;BME280;12420;42.676;23.262;2023-04-05T07:40:13;94228.91;;;2.53;100.00
12077;BME280;12420;42.676;23.262;2023-04-05T07:42:40;94248.44;;;2.41;100.00
12077;BME280;12420;42.676;23.262;2023-04-05T07:45:09;94256.34;;;2.38;100.00
12077;BME280;12420;42.676;23.262;2023-04-05T07:47:36;94239.75;;;2.42;100.00
12077;BME280;12420;42.676;23.262;2023-04-05T07:50:04;94282.78;;;2.47;100.00
12077;BME280;12420;42.676;23.262;2023-04-05T07:52:31;94181.84;;;2.06;100.00
12077;BME280;12420;42.676;23.262;2023-04-05T07:54:58;94194.84;;;1.91;100.00
12077;BME280;12420;42.676;23.262;2023-04-05T07:57:27;94219.50;;;2.02;100.00
12077;BME280;12420;42.676;23.262;2023-04-05T07:59:54;94246.69;;;1.91;100.00
12077;BME280;12420;42.676;23.262;2023-04-05T08:02:26;94268.66;;;2.02;100.00
12077;BME280;12420;42.676;23.262;2023-04-05T08:04:53;94172.81;;;1.27;100.00
12077;BME280;12420;42.676;23.262;2023-04-05T08:07:20;94311.06;;;2.03;100.00
12077;BME280;12420;42.676;23.262;2023-04-05T08:09:46;94274.38;;;2.04;100.00
12077;BME280;12420;42.676;23.262;2023-04-05T08:12:13;94280.63;;;2.10;100.00
12077;BME280;12420;42.676;23.262;2023-04-05T08:14:40;94228.53;;;1.88;100.00
12077;BME280;12420;42.676;23.262;2023-04-05T08:17:07;94280.22;;;2.17;100.00
12077;BME280;12420;42.676;23.262;2023-04-05T08:19:35;94282.00;;;2.21;100.00
12077;BME280;12420;42.676;23.262;2023-04-05T08:22:02;94252.91;;;1.91;100.00
12077;BME280;12420;42.676;23.262;2023-04-05T08:24:30;94283.19;;;2.14;100.00
12077;BME280;12420;42.676;23.262;2023-04-05T08:26:57;94209.22;;;1.91;100.00
12077;BME280;12420;42.676;23.262;2023-04-05T08:29:23;94225.81;;;1.88;100.00
12077;BME280;12420;42.676;23.262;2023-04-05T08:32:01;94251.94;;;1.94;100.00
12077;BME280;12420;42.676;23.262;2023-04-05T08:34:27;94266.59;;;1.97;100.00
12077;BME280;12420;42.676;23.262;2023-04-05T08:36:58;94328.47;;;2.26;100.00
12077;BME280;12420;42.676;23.262;2023-04-05T08:39:25;94211.38;;;1.61;100.00
12077;BME280;12420;42.676;23.262;2023-04-05T08:41:57;94248.69;;;2.16;100.00
12077;BME280;12420;42.676;23.262;2023-04-05T08:44:29;94291.41;;;2.20;100.00
12077;BME280;12420;42.676;23.262;2023-04-05T08:46:57;94292.78;;;2.56;100.00
12077;BME280;12420;42.676;23.262;2023-04-05T08:49:27;94266.25;;;2.10;100.00
12077;BME280;12420;42.676;23.262;2023-04-05T08:51:55;94295.13;;;2.43;100.00
12077;BME280;12420;42.676;23.262;2023-04-05T08:54:25;94293.50;;;2.56;100.00
12077;BME280;12420;42.676;23.262;2023-04-05T08:56:52;94315.50;;;2.68;100.00
12077;BME280;12420;42.676;23.262;2023-04-05T08:59:20;94227.09;;;2.18;100.00
12077;BME280;12420;42.676;23.262;2023-04-05T09:01:49;94280.50;;;2.20;100.00
12077;BME280;12420;42.676;23.262;2023-04-05T09:04:20;94307.59;;;2.49;100.00
12077;BME280;12420;42.676;23.262;2023-04-05T09:06:49;94291.22;;;2.49;100.00
12077;BME280;12420;42.676;23.262;2023-04-05T09:09:18;94315.06;;;2.75;100.00
12077;BME280;12420;42.676;23.262;2023-04-05T09:11:47;94290.97;;;2.47;100.00
12077;BME280;12420;42.676;23.262;2023-04-05T09:14:14;94294.91;;;2.46;100.00
12077;BME280;12420;42.676;23.262;2023-04-05T09:16:42;94316.88;;;2.57;100.00
12077;BME280;12420;42.676;23.262;2023-04-05T09:19:10;94306.28;;;2.65;100.00
12077;BME280;12420;42.676;23.262;2023-04-05T09:21:58;94310.66;;;2.83;100.00
12077;BME280;12420;42.676;23.262;2023-04-05T09:24:34;94328.81;;;2.86;100.00
12077;BME280;12420;42.676;23.262;2023-04-05T09:27:07;94308.72;;;2.89;100.00
12077;BME280;12420;42.676;23.262;2023-04-05T09:29:34;94281.97;;;2.67;100.00
12077;BME280;12420;42.676;23.262;2023-04-05T09:32:01;94320.97;;;2.99;100.00
12077;BME280;12420;42.676;23.262;2023-04-05T09:34:29;94217.31;;;2.32;100.00
12077;BME280;12420;42.676;23.262;2023-04-05T09:36:58;94300.13;;;3.02;100.00
12077;BME280;12420;42.676;23.262;2023-04-05T09:39:29;94263.63;;;2.73;100.00
12077;BME280;12420;42.676;23.262;2023-04-05T09:42:08;94306.59;;;2.73;100.00
12077;BME280;12420;42.676;23.262;2023-04-05T09:44:47;94303.44;;;2.80;100.00
12077;BME280;12420;42.676;23.262;2023-04-05T09:47:16;94272.91;;;2.29;100.00
12077;BME280;12420;42.676;23.262;2023-04-05T09:49:43;94298.16;;;2.76;100.00
12077;BME280;12420;42.676;23.262;2023-04-05T09:52:19;94289.94;;;3.02;100.00
12077;BME280;12420;42.676;23.262;2023-04-05T09:54:46;94268.78;;;2.66;100.00
12077;BME280;12420;42.676;23.262;2023-04-05T09:57:17;94310.13;;;2.53;100.00
12077;BME280;12420;42.676;23.262;2023-04-05T09:59:45;94256.84;;;1.90;100.00
12077;BME280;12420;42.676;23.262;2023-04-05T10:02:12;94324.16;;;2.66;100.00
12077;BME280;12420;42.676;23.262;2023-04-05T10:04:45;94349.34;;;2.50;100.00
12077;BME280;12420;42.676;23.262;2023-04-05T10:07:15;94313.13;;;2.55;100.00
12077;BME280;12420;42.676;23.262;2023-04-05T10:09:43;94263.59;;;1.95;100.00
12077;BME280;12420;42.676;23.262;2023-04-05T10:12:13;94270.06;;;2.44;100.00
12077;BME280;12420;42.676;23.262;2023-04-05T10:14:45;94313.59;;;2.79;100.00
12077;BME280;12420;42.676;23.262;2023-04-05T10:17:15;94306.03;;;2.95;100.00
12077;BME280;12420;42.676;23.262;2023-04-05T10:19:59;94317.81;;;2.75;100.00
12077;BME280;12420;42.676;23.262;2023-04-05T10:22:33;94272.25;;;2.40;100.00
12077;BME280;12420;42.676;23.262;2023-04-05T10:25:05;94322.81;;;2.56;100.00
12077;BME280;12420;42.676;23.262;2023-04-05T10:27:38;94298.06;;;2.91;100.00
12077;BME280;12420;42.676;23.262;2023-04-05T10:30:10;94293.13;;;2.69;100.00
12077;BME280;12420;42.676;23.262;2023-04-05T10:32:52;94283.31;;;2.83;100.00
12077;BME280;12420;42.676;23.262;2023-04-05T10:35:28;94288.00;;;3.09;100.00
12077;BME280;12420;42.676;23.262;2023-04-05T10:38:09;94303.50;;;3.23;100.00
12077;BME280;12420;42.676;23.262;2023-04-05T10:40:38;94324.75;;;3.08;100.00
12077;BME280;12420;42.676;23.262;2023-04-05T10:43:13;94306.16;;;3.12;100.00
12077;BME280;12420;42.676;23.262;2023-04-05T10:45:43;94272.66;;;2.85;100.00
12077;BME280;12420;42.676;23.262;2023-04-05T10:48:15;94308.63;;;3.10;100.00
12077;BME280;12420;42.676;23.262;2023-04-05T10:50:46;94289.84;;;2.91;100.00
12077;BME280;12420;42.676;23.262;2023-04-05T10:53:15;94245.38;;;2.91;100.00
12077;BME280;12420;42.676;23.262;2023-04-05T10:55:43;94277.81;;;3.09;100.00
12077;BME280;12420;42.676;23.262;2023-04-05T10:58:12;94320.06;;;3.08;100.00
12077;BME280;12420;42.676;23.262;2023-04-05T11:00:40;94315.16;;;2.86;100.00
12077;BME280;12420;42.676;23.262;2023-04-05T11:03:41;94293.22;;;2.75;100.00
12077;BME280;12420;42.676;23.262;2023-04-05T11:06:17;94323.81;;;2.85;100.00
12077;BME280;12420;42.676;23.262;2023-04-05T11:08:46;94275.72;;;2.67;100.00
12077;BME280;12420;42.676;23.262;2023-04-05T11:11:15;94298.06;;;2.91;100.00
12077;BME280;12420;42.676;23.262;2023-04-05T11:13:52;94324.63;;;2.91;100.00
12077;BME280;12420;42.676;23.262;2023-04-05T11:16:19;94322.34;;;2.83;100.00
12077;BME280;12420;42.676;23.262;2023-04-05T11:18:48;94260.38;;;2.17;100.00
12077;BME280;12420;42.676;23.262;2023-04-05T11:21:23;94307.88;;;2.77;100.00
12077;BME280;12420;42.676;23.262;2023-04-05T11:24:03;94285.41;;;2.42;100.00
12077;BME280;12420;42.676;23.262;2023-04-05T11:26:32;94329.09;;;2.88;100.00
12077;BME280;12420;42.676;23.262;2023-04-05T11:28:59;94316.13;;;2.83;100.00
12077;BME280;12420;42.676;23.262;2023-04-05T11:31:27;94328.38;;;2.93;100.00
12077;BME280;12420;42.676;23.262;2023-04-05T11:33:56;94281.03;;;2.76;100.00
12077;BME280;12420;42.676;23.262;2023-04-05T11:36:31;94319.75;;;3.38;100.00
12077;BME280;12420;42.676;23.262;2023-04-05T11:39:24;94326.28;;;3.09;100.00
12077;BME280;12420;42.676;23.262;2023-04-05T11:41:59;94322.72;;;3.02;100.00
12077;BME280;12420;42.676;23.262;2023-04-05T11:44:29;94323.31;;;2.80;100.00
12077;BME280;12420;42.676;23.262;2023-04-05T11:47:10;94302.16;;;3.07;100.00
12077;BME280;12420;42.676;23.262;2023-04-05T11:49:39;94223.63;;;2.76;100.00
12077;BME280;12420;42.676;23.262;2023-04-05T11:52:12;94222.41;;;3.14;100.00
12077;BME280;12420;42.676;23.262;2023-04-05T11:54:39;94351.44;;;3.50;100.00
12077;BME280;12420;42.676;23.262;2023-04-05T11:57:11;94325.97;;;3.38;100.00
12077;BME280;12420;42.676;23.262;2023-04-05T11:59:37;94323.00;;;3.36;100.00
12077;BME280;12420;42.676;23.262;2023-04-05T12:02:05;94261.69;;;3.17;100.00
12077;BME280;12420;42.676;23.262;2023-04-05T12:04:33;94303.94;;;3.53;100.00
12077;BME280;12420;42.676;23.262;2023-04-05T12:07:26;94324.06;;;3.44;100.00
12077;BME280;12420;42.676;23.262;2023-04-05T12:10:01;94316.63;;;3.51;100.00
12077;BME280;12420;42.676;23.262;2023-04-05T12:12:32;94318.03;;;3.40;100.00
12077;BME280;12420;42.676;23.262;2023-04-05T12:15:00;94273.75;;;2.99;100.00
12077;BME280;12420;42.676;23.262;2023-04-05T12:17:43;94327.69;;;3.36;100.00
12077;BME280;12420;42.676;23.262;2023-04-05T12:20:12;94320.22;;;3.31;100.00
12077;BME280;12420;42.676;23.262;2023-04-05T12:22:41;94318.19;;;3.25;100.00
12077;BME280;12420;42.676;23.262;2023-04-05T12:25:09;94319.03;;;3.37;100.00
12077;BME280;12420;42.676;23.262;2023-04-05T12:27:37;94326.03;;;3.12;100.00
12077;BME280;12420;42.676;23.262;2023-04-05T12:30:13;94349.44;;;2.87;100.00
12077;BME280;12420;42.676;23.262;2023-04-05T12:32:41;94315.63;;;3.11;100.00
12077;BME280;12420;42.676;23.262;2023-04-05T12:35:10;94323.53;;;3.09;100.00
12077;BME280;12420;42.676;23.262;2023-04-05T12:37:38;94320.28;;;3.04;100.00
12077;BME280;12420;42.676;23.262;2023-04-05T12:40:08;94282.03;;;2.78;100.00
12077;BME280;12420;42.676;23.262;2023-04-05T12:42:36;94324.03;;;3.07;100.00
12077;BME280;12420;42.676;23.262;2023-04-05T12:45:05;94316.84;;;3.10;100.00
12077;BME280;12420;42.676;23.262;2023-04-05T12:47:33;94285.97;;;3.03;100.00
12077;BME280;12420;42.676;23.262;2023-04-05T12:50:14;94202.78;;;2.47;100.00
12077;BME280;12420;42.676;23.262;2023-04-05T12:52:52;94321.88;;;3.54;100.00
12077;BME280;12420;42.676;23.262;2023-04-05T12:55:21;94324.25;;;3.41;100.00
12077;BME280;12420;42.676;23.262;2023-04-05T12:57:49;94277.72;;;2.98;100.00
12077;BME280;12420;42.676;23.262;2023-04-05T13:00:17;94300.22;;;3.13;100.00
12077;BME280;12420;42.676;23.262;2023-04-05T13:02:47;94293.63;;;2.99;100.00